Burbank, Oklahoma
Current Conditions -  °F | °C
As of 12:53 AM on Saturday 01 Nov 2014 (Local Time) from KPNC Reporting Station
Clear Clear  
Wind Chill: 28°   Ceiling: Unl
Heat Index: 28°   Visibility: 10mi
Dew Point: 22°   Wind: 0mph
Humidity: 78%   Direction: NA
Pressure: 30.43"   Gusts: NA
Location:  36.7°N, 96.73°W
Report Text: KPNC 010553Z AUTO 00000KT 10SM CLR M02/M06 A3043 RMK AO2 SLP309 T10221056 10072 21022 401281022 58000
Loading
Personal Weather Stations






























Interactive Weather Map New forecast layout! Learn more

10-Day Weather Forecast

Advertisements
Track Severe Weather on mobile